Impacts TAF Board INFO
FOR SITUATIONAL AWARENESS. NOT TO BE USED FOR FLIGHT PLANNING PURPOSES.
IDs:

KMSP - Minneapolis-St Paul, MN, US

Issued at 0847 UTC 23 May 2018
Updated at 1102 UTC 23 May 2018
Potential Impact None Slight Moderate High
Time1053Z 23/12Z 23/13Z 23/14Z 23/15Z 23/16Z 23/17Z 23/18Z 23/19Z 23/20Z 23/21Z 23/22Z 23/23Z 24/00Z>>
Type OBS PRVL PRVL PRVL PRVL PRVL PRVL PRVL PRVL PRVL PRVL PRVL PRVL PRVL
VIS 5 >6 >6 >6 >6 >6 >6 >6 >6 >6 >6 >6 >6 >6
CIG 70 50 40 40 40 60 60 60 60 60 60 60 60 60
Cover BKN BKN BKN BKN BKN BKN BKN BKN BKN BKN BKN BKN BKN BKN
FltCat MVFR VFR VFR VFR VFR VFR VFR VFR VFR VFR VFR VFR VFR VFR
WX BR -- -SHRA VCTS -SHRA VCTS -SHRA VCTS -- -- -- -- -- -- -- -- --
WDir 140 130 140 140 140 150 150 150 150 150 150 150 150 150
WSpd 4 6 8 8 8 8 8 8 8 8 8 8 8 8
WGst -- -- -- -- -- -- -- -- -- -- -- -- -- --

Raw TAF
KMSP 230847Z 2309/2412 13006KT P6SM SCT110 BKN200
  FM231200 13006KT P6SM BKN050
  FM231300 14008KT P6SM -SHRA VCTS BKN040CB
  FM231600 15008KT P6SM BKN060


Raw METAR
KMSP 231053Z 14004KT 5SM BR SCT045 BKN070 BKN300 17/15 A3009 RMK AO2 SLP188 T01720150
KMSP 230953Z 13007KT 9SM BKN046 BKN300 17/15 A3009 RMK AO2 SLP187 T01720150
KMSP 230853Z 14005KT 6SM BR BKN040 BKN065 BKN300 17/15 A3009 RMK AO2 SLP187 T01670150 53003

METAR Board
Radar Display
Forecast Discussion

FOR SITUATIONAL AWARENESS. NOT TO BE USED FOR FLIGHT PLANNING PURPOSES.